createdAt,value
2023-05-08T00:02:46.984Z,2.93
2023-05-08T00:07:51.140Z,3.72
2023-05-08T00:12:53.765Z,6.72
2023-05-08T00:17:56.377Z,8.64
2023-05-08T00:22:58.963Z,9.62
2023-05-08T00:28:01.571Z,8.09
2023-05-08T00:33:04.540Z,6.35
2023-05-08T00:38:07.178Z,6.57
2023-05-08T00:43:09.713Z,8.90
2023-05-08T00:48:12.454Z,9.17
2023-05-08T00:53:15.367Z,7.00
2023-05-08T00:58:18.837Z,6.63
2023-05-08T01:03:22.752Z,8.09
2023-05-08T01:08:25.591Z,8.78
2023-05-08T01:13:49.811Z,8.75
2023-05-08T01:19:07.179Z,6.72
2023-05-08T01:24:51.391Z,6.58
2023-05-08T01:30:16.383Z,8.03
2023-05-08T01:35:27.445Z,8.54
2023-05-08T01:40:52.533Z,7.00
2023-05-08T01:45:57.965Z,5.41
2023-05-08T01:51:17.244Z,5.21
2023-05-08T01:56:23.933Z,6.78
2023-05-08T02:01:29.310Z,7.70
2023-05-08T02:06:32.511Z,8.18
2023-05-08T02:11:37.614Z,6.86
2023-05-08T02:16:42.445Z,5.31
2023-05-08T02:21:46.596Z,5.02
2023-05-08T02:26:50.407Z,6.52
2023-05-08T02:31:56.056Z,7.47
2023-05-08T02:36:59.673Z,7.68
2023-05-08T02:42:02.575Z,5.93
2023-05-08T02:47:22.085Z,4.57
2023-05-08T02:52:27.385Z,5.37
2023-05-08T02:57:42.171Z,6.70
2023-05-08T03:02:50.810Z,7.48
2023-05-08T03:07:56.909Z,7.24
2023-05-08T03:13:02.934Z,5.38
2023-05-08T03:18:13.815Z,4.19
2023-05-08T03:23:20.000Z,4.99
2023-05-08T03:28:23.930Z,6.50
2023-05-08T03:33:26.916Z,7.38
2023-05-08T03:38:29.608Z,6.73
2023-05-08T03:43:32.761Z,5.23
2023-05-08T03:48:35.911Z,4.45
2023-05-08T03:53:38.498Z,5.55
2023-05-08T03:58:50.414Z,7.19
2023-05-08T04:04:00.050Z,8.15
2023-05-08T04:09:18.840Z,7.04
2023-05-08T04:14:24.726Z,6.06
2023-05-08T04:19:29.484Z,5.56
2023-05-08T04:24:35.001Z,5.98
2023-05-08T04:29:37.872Z,7.93
2023-05-08T04:34:41.129Z,9.15
2023-05-08T04:39:43.888Z,8.61
2023-05-08T04:44:47.539Z,7.46
2023-05-08T04:49:50.412Z,6.92
2023-05-08T04:54:52.982Z,7.33
2023-05-08T04:59:55.993Z,9.30
2023-05-08T05:05:01.159Z,9.47
2023-05-08T05:10:04.400Z,8.59
2023-05-08T05:15:07.443Z,8.22
2023-05-08T05:20:10.690Z,8.10
2023-05-08T05:25:13.496Z,8.08
2023-05-08T05:30:16.446Z,8.13
2023-05-08T05:35:19.053Z,8.88
2023-05-08T05:40:21.685Z,10.99
2023-05-08T05:45:24.217Z,11.16
2023-05-08T05:50:27.325Z,10.53
2023-05-08T05:55:30.036Z,10.34
2023-05-08T06:00:32.715Z,10.36
2023-05-08T06:05:35.337Z,10.40
2023-05-08T06:10:38.191Z,10.43
2023-05-08T06:15:41.088Z,10.56
2023-05-08T06:20:43.662Z,10.69
2023-05-08T06:25:46.226Z,10.87
2023-05-08T06:30:48.917Z,11.05
2023-05-08T06:35:51.787Z,11.24
2023-05-08T06:40:55.203Z,11.46
2023-05-08T06:45:57.791Z,11.70
2023-05-08T06:51:00.636Z,11.89
2023-05-08T06:56:03.284Z,12.01
2023-05-08T07:01:06.004Z,12.16
2023-05-08T07:06:09.876Z,12.41
2023-05-08T07:11:12.448Z,12.69
2023-05-08T07:16:16.154Z,12.93
2023-05-08T07:21:21.170Z,13.16
2023-05-08T07:26:23.772Z,13.36
2023-05-08T07:31:26.423Z,13.53
2023-05-08T07:36:29.244Z,13.68
2023-05-08T07:41:32.377Z,13.81
2023-05-08T07:46:35.407Z,13.94
2023-05-08T07:51:38.280Z,14.14
2023-05-08T07:56:40.809Z,14.30
2023-05-08T08:01:47.208Z,14.43
2023-05-08T08:06:50.602Z,14.49
2023-05-08T08:11:53.254Z,14.72
2023-05-08T08:16:56.049Z,14.92
2023-05-08T08:21:58.756Z,14.98
2023-05-08T08:27:02.680Z,15.05
2023-05-08T08:32:05.746Z,15.27
2023-05-08T08:37:08.341Z,15.39
2023-05-08T08:42:12.350Z,15.60
2023-05-08T08:47:16.551Z,15.79
2023-05-08T08:52:43.668Z,15.88
2023-05-08T08:58:18.956Z,15.88
2023-05-08T09:03:23.330Z,15.84
2023-05-08T09:08:27.114Z,15.85
2023-05-08T09:13:30.029Z,15.99
2023-05-08T09:18:32.893Z,16.08
2023-05-08T09:23:37.430Z,16.15
2023-05-08T09:28:39.992Z,16.26
2023-05-08T09:33:45.378Z,16.24
2023-05-08T09:38:47.835Z,16.32
2023-05-08T09:44:04.343Z,16.47
2023-05-08T09:49:17.197Z,16.70
2023-05-08T09:54:20.317Z,16.79
2023-05-08T09:59:28.301Z,17.04
2023-05-08T10:04:35.859Z,17.24
2023-05-08T10:09:49.707Z,17.47
2023-05-08T10:14:53.234Z,17.32
2023-05-08T10:20:00.485Z,17.20
2023-05-08T10:25:07.879Z,17.31
2023-05-08T10:30:13.504Z,17.51
2023-05-08T10:35:16.692Z,17.75
2023-05-08T10:40:21.308Z,17.91
2023-05-08T10:45:24.553Z,18.13
2023-05-08T10:50:46.129Z,18.30
2023-05-08T10:55:51.553Z,18.33
2023-05-08T11:00:57.096Z,18.39
2023-05-08T11:06:02.207Z,18.42
2023-05-08T11:11:11.700Z,18.58
2023-05-08T11:16:14.780Z,18.68
2023-05-08T11:21:23.996Z,18.75
2023-05-08T11:26:40.538Z,18.94
2023-05-08T11:31:50.657Z,19.12
2023-05-08T11:37:02.799Z,19.10
2023-05-08T11:42:33.796Z,19.30
2023-05-08T11:47:43.131Z,19.45
2023-05-08T11:52:45.677Z,19.59
2023-05-08T11:57:48.301Z,19.58
2023-05-08T12:02:51.090Z,19.53
2023-05-08T12:07:53.750Z,19.65
2023-05-08T12:12:56.283Z,19.75
2023-05-08T12:18:02.861Z,19.98
2023-05-08T12:23:05.569Z,20.19
2023-05-08T12:28:09.274Z,20.34
2023-05-08T12:33:12.158Z,20.45
2023-05-08T12:38:14.916Z,20.56
2023-05-08T12:43:17.491Z,20.77
2023-05-08T12:48:20.173Z,20.92
2023-05-08T12:53:23.013Z,21.04
2023-05-08T12:58:27.705Z,21.21
2023-05-08T13:03:30.848Z,21.47
2023-05-08T13:08:36.196Z,21.62
2023-05-08T13:13:38.728Z,21.67
2023-05-08T13:18:41.265Z,21.67
2023-05-08T13:23:43.752Z,21.87
2023-05-08T13:28:46.275Z,22.21
2023-05-08T13:33:48.856Z,22.45
2023-05-08T13:38:54.182Z,22.82
2023-05-08T13:43:56.977Z,23.10
2023-05-08T13:48:59.509Z,23.09
2023-05-08T13:54:02.044Z,23.33
2023-05-08T13:59:04.629Z,23.61
2023-05-08T14:04:07.272Z,23.71
2023-05-08T14:09:09.882Z,23.55
2023-05-08T14:14:12.554Z,23.86
2023-05-08T14:19:15.032Z,24.47
2023-05-08T14:24:17.611Z,25.01
2023-05-08T14:29:20.220Z,25.65
2023-05-08T14:34:22.816Z,26.26
2023-05-08T14:39:25.414Z,26.96
2023-05-08T14:44:28.347Z,27.79
2023-05-08T14:49:38.056Z,28.32
2023-05-08T14:54:41.491Z,28.67
2023-05-08T14:59:54.092Z,28.81
2023-05-08T15:04:57.678Z,29.18
2023-05-08T15:10:00.619Z,29.94
2023-05-08T15:15:04.506Z,30.73
2023-05-08T15:20:08.585Z,31.16
2023-05-08T15:25:11.745Z,31.45
2023-05-08T15:30:14.529Z,31.98
2023-05-08T15:35:17.180Z,32.50
2023-05-08T15:40:19.725Z,33.08
2023-05-08T15:45:22.401Z,33.79
2023-05-08T15:50:24.973Z,34.24
2023-05-08T15:55:27.522Z,34.34
2023-05-08T16:00:43.326Z,34.18
2023-05-08T16:05:47.031Z,34.10
2023-05-08T16:10:49.699Z,34.02
2023-05-08T16:15:52.288Z,32.76
2023-05-08T16:20:54.964Z,30.57
2023-05-08T16:25:57.508Z,27.99
2023-05-08T16:31:00.150Z,25.82
2023-05-08T16:36:02.851Z,24.25
2023-05-08T16:41:06.583Z,23.07
2023-05-08T16:46:09.341Z,22.17
2023-05-08T16:51:11.953Z,21.47
2023-05-08T16:56:14.486Z,20.81
2023-05-08T17:01:17.047Z,20.44
2023-05-08T17:06:20.680Z,20.54
2023-05-08T17:11:23.303Z,19.94
2023-05-08T17:16:25.968Z,19.23
2023-05-08T17:21:30.139Z,18.64
2023-05-08T17:26:33.478Z,18.14
2023-05-08T17:31:35.990Z,17.64
2023-05-08T17:36:38.843Z,17.15
2023-05-08T17:41:41.519Z,16.70
2023-05-08T17:46:44.624Z,16.27
2023-05-08T17:51:47.194Z,15.84
2023-05-08T17:56:49.723Z,15.45
2023-05-08T18:01:52.316Z,15.06
2023-05-08T18:06:55.014Z,14.71
2023-05-08T18:12:02.165Z,14.35
2023-05-08T18:17:05.894Z,13.99
2023-05-08T18:22:08.515Z,13.61
2023-05-08T18:27:11.363Z,13.22
2023-05-08T18:32:13.937Z,12.88
2023-05-08T18:37:16.508Z,12.58
2023-05-08T18:42:19.041Z,12.28
2023-05-08T18:47:21.628Z,12.01
2023-05-08T18:52:24.205Z,11.82
2023-05-08T18:57:26.755Z,11.66
2023-05-08T19:02:29.410Z,11.59
2023-05-08T19:07:32.023Z,11.52
2023-05-08T19:12:34.647Z,11.47
2023-05-08T19:17:37.366Z,11.40
2023-05-08T19:22:39.969Z,11.26
2023-05-08T19:27:42.547Z,11.10
2023-05-08T19:32:45.053Z,10.95
2023-05-08T19:37:47.615Z,10.80
2023-05-08T19:42:50.226Z,10.62
2023-05-08T19:47:52.800Z,10.43
2023-05-08T19:52:55.602Z,10.24
2023-05-08T19:57:58.130Z,10.04
2023-05-08T20:03:00.670Z,9.80
2023-05-08T20:08:03.380Z,9.58
2023-05-08T20:13:05.899Z,9.35
2023-05-08T20:18:08.608Z,9.18
2023-05-08T20:23:11.712Z,9.09
2023-05-08T20:28:15.383Z,9.01
2023-05-08T20:33:18.763Z,8.86
2023-05-08T20:38:21.597Z,8.73
2023-05-08T20:43:24.126Z,8.63
2023-05-08T20:48:26.709Z,8.53
2023-05-08T20:53:29.331Z,8.42
2023-05-08T20:58:31.950Z,8.33
2023-05-08T21:03:34.471Z,8.24
2023-05-08T21:08:37.013Z,8.15
2023-05-08T21:13:39.507Z,8.03
2023-05-08T21:18:42.086Z,7.92
2023-05-08T21:23:44.645Z,7.82
2023-05-08T21:28:47.208Z,7.71
2023-05-08T21:33:50.010Z,7.60
2023-05-08T21:38:52.862Z,7.49
2023-05-08T21:43:55.621Z,7.39
2023-05-08T21:48:58.113Z,7.27
2023-05-08T21:54:00.771Z,7.16
2023-05-08T21:59:03.391Z,7.06
2023-05-08T22:04:06.132Z,6.99
2023-05-08T22:09:08.700Z,6.94
2023-05-08T22:14:11.218Z,6.85
2023-05-08T22:19:13.793Z,6.76
2023-05-08T22:24:16.683Z,6.64
2023-05-08T22:29:19.180Z,6.52
2023-05-08T22:34:22.142Z,6.41
2023-05-08T22:39:24.672Z,6.29
2023-05-08T22:44:27.465Z,6.21
2023-05-08T22:49:30.148Z,6.13
2023-05-08T22:54:32.790Z,6.05
2023-05-08T22:59:36.372Z,5.94
2023-05-08T23:04:39.168Z,5.86
2023-05-08T23:09:41.722Z,5.79
2023-05-08T23:14:44.240Z,5.70
2023-05-08T23:19:46.891Z,5.66
2023-05-08T23:24:49.452Z,5.68
2023-05-08T23:29:51.971Z,5.67
2023-05-08T23:34:54.779Z,5.59
2023-05-08T23:39:58.568Z,5.49
2023-05-08T23:45:01.055Z,5.41
2023-05-08T23:50:03.996Z,5.31
2023-05-08T23:55:07.441Z,5.17
